Time;durP1;ratioP1;P1;durP2;ratioP2;P2;SDS_P1;SDS_P2;PMS_P1;PMS_P2;Temp;Humidity;BMP_temperature;BMP_pressure;BME280_temperature;BME280_humidity;BME280_pressure;Samples;Min_cycle;Max_cycle;Signal;HPM_P1;HPM_P2
2021/10/15 05:32:47;;;;;;;8.70;5.10;;;;;;;1.89;100.00;99258.16;5090106;27;20396;-82
2021/10/15 05:35:14;;;;;;;8.18;5.60;;;;;;;1.99;100.00;99275.19;5089507;28;20052;-82
2021/10/15 05:37:41;;;;;;;11.40;7.75;;;;;;;2.07;100.00;99277.22;5077432;28;20041;-82
2021/10/15 05:40:11;;;;;;;13.57;7.95;;;;;;;2.08;100.00;99266.38;5069579;28;20110;-82
2021/10/15 05:42:37;;;;;;;11.18;8.20;;;;;;;2.10;100.00;99271.59;5062995;28;20472;-82
2021/10/15 05:45:05;;;;;;;14.02;7.63;;;;;;;2.22;100.00;99270.56;5047878;28;20489;-82
2021/10/15 05:47:32;;;;;;;11.73;8.23;;;;;;;2.21;100.00;99273.38;5050530;28;20045;-82
2021/10/15 05:50:00;;;;;;;12.00;6.90;;;;;;;2.22;100.00;99264.38;5049239;28;20052;-82
2021/10/15 05:52:33;;;;;;;10.40;6.90;;;;;;;2.31;100.00;99271.63;5049225;28;20128;-82
2021/10/15 05:55:04;;;;;;;12.43;8.60;;;;;;;2.33;100.00;99276.88;5061281;28;20052;-82
2021/10/15 06:00:15;;;;;;;11.05;8.13;;;;;;;2.40;100.00;99268.16;5047602;28;20057;-82
2021/10/15 06:02:44;;;;;;;13.32;8.70;;;;;;;2.45;100.00;99281.19;5048579;28;20270;-82
2021/10/15 06:16:15;;;;;;;12.70;6.65;;;;;;;2.62;100.00;99274.38;5067963;28;20052;-82
2021/10/15 06:18:51;;;;;;;9.57;6.00;;;;;;;2.69;100.00;99264.81;5068879;28;20075;-82
2021/10/15 06:21:22;;;;;;;11.75;6.60;;;;;;;2.76;100.00;99278.59;5068056;28;20044;-82
2021/10/15 06:23:49;;;;;;;9.73;6.72;;;;;;;2.63;100.00;99265.34;5068026;28;20049;-82
2021/10/15 06:26:15;;;;;;;13.20;5.68;;;;;;;2.72;100.00;99274.44;5067276;28;20400;-82
2021/10/15 06:28:42;;;;;;;7.15;5.50;;;;;;;2.74;100.00;99272.47;5067407;28;20153;-82
2021/10/15 06:31:09;;;;;;;10.93;6.18;;;;;;;2.81;100.00;99284.41;5067976;28;20134;-82
2021/10/15 06:33:36;;;;;;;12.23;6.90;;;;;;;2.86;100.00;99286.69;5067614;28;20053;-82
2021/10/15 06:36:03;;;;;;;11.45;5.45;;;;;;;2.90;100.00;99285.44;5068141;28;20049;-82
2021/10/15 06:38:31;;;;;;;8.25;6.05;;;;;;;2.85;100.00;99287.69;5055246;28;20459;-82
2021/10/15 06:40:58;;;;;;;13.50;7.30;;;;;;;2.93;100.00;99288.69;5048501;28;20095;-82
2021/10/15 06:43:25;;;;;;;10.82;7.05;;;;;;;3.03;100.00;99302.19;5044580;28;20484;-82
2021/10/15 06:45:52;;;;;;;10.98;6.70;;;;;;;3.13;100.00;99294.16;5054255;28;20072;-82
2021/10/15 06:48:20;;;;;;;15.30;6.28;;;;;;;2.99;100.00;99276.56;5051039;28;20049;-82
2021/10/15 06:50:47;;;;;;;17.80;6.82;;;;;;;2.98;100.00;99285.59;5034957;28;20401;-81
2021/10/15 06:53:13;;;;;;;9.98;6.90;;;;;;;2.98;100.00;99293.66;5034905;28;20115;-82
2021/10/15 06:55:42;;;;;;;11.57;6.63;;;;;;;2.97;100.00;99292.00;5053093;28;20084;-82
2021/10/15 06:58:08;;;;;;;11.45;7.03;;;;;;;3.00;100.00;99300.63;5054479;28;20496;-83
2021/10/15 07:00:35;;;;;;;15.00;7.47;;;;;;;2.95;100.00;99296.63;5048577;28;20049;-82
2021/10/15 07:03:02;;;;;;;14.98;8.52;;;;;;;3.17;100.00;99298.28;5052185;28;20126;-82
2021/10/15 07:05:29;;;;;;;12.77;7.07;;;;;;;3.30;100.00;99292.72;5043158;28;20053;-82
2021/10/15 07:07:56;;;;;;;13.73;7.07;;;;;;;3.25;100.00;99282.38;5034756;28;20099;-82
2021/10/15 07:10:23;;;;;;;9.38;6.47;;;;;;;3.49;100.00;99292.78;5034803;28;20046;-82
2021/10/15 07:12:52;;;;;;;14.57;6.93;;;;;;;3.51;100.00;99285.41;5046584;28;20045;-82
2021/10/15 07:15:19;;;;;;;16.42;7.30;;;;;;;3.68;100.00;99291.13;5053977;28;20115;-82
2021/10/15 07:17:45;;;;;;;13.30;7.32;;;;;;;3.75;100.00;99278.84;5054153;28;20052;-82
2021/10/15 07:20:13;;;;;;;18.85;7.70;;;;;;;3.81;100.00;99280.09;5053412;28;20130;-82
2021/10/15 07:22:39;;;;;;;13.93;6.95;;;;;;;3.95;100.00;99285.09;5050041;28;20084;-82
2021/10/15 07:25:08;;;;;;;13.38;8.02;;;;;;;4.05;100.00;99291.34;5054145;28;20102;-82
2021/10/15 07:27:35;;;;;;;12.23;7.07;;;;;;;4.11;100.00;99291.75;5041371;28;20057;-82
2021/10/15 07:30:04;;;;;;;13.48;6.30;;;;;;;4.31;100.00;99295.31;5034458;28;20049;-82
2021/10/15 07:32:32;;;;;;;9.00;6.10;;;;;;;4.48;100.00;99293.75;5040085;28;20045;-82
2021/10/15 07:34:58;;;;;;;14.27;6.25;;;;;;;4.65;100.00;99276.84;5053867;28;20238;-82
2021/10/15 07:37:26;;;;;;;10.73;5.53;;;;;;;4.89;100.00;99281.78;5053062;28;20492;-82
2021/10/15 07:39:52;;;;;;;14.23;6.65;;;;;;;4.99;100.00;99297.09;5038826;28;20124;-82
2021/10/15 07:42:19;;;;;;;13.35;5.90;;;;;;;5.05;100.00;99291.09;5053821;28;20049;-82
2021/10/15 07:44:46;;;;;;;13.55;6.53;;;;;;;5.14;100.00;99298.31;5039046;28;20057;-82
2021/10/15 07:47:14;;;;;;;17.63;8.95;;;;;;;5.26;100.00;99296.28;5033667;28;20057;-82
2021/10/15 07:49:41;;;;;;;25.98;9.50;;;;;;;5.30;100.00;99295.84;5041186;28;20041;-82
2021/10/15 07:52:08;;;;;;;20.58;8.68;;;;;;;5.38;100.00;99287.00;5053647;28;20527;-82
2021/10/15 07:54:35;;;;;;;17.10;9.00;;;;;;;5.53;100.00;99297.31;5051760;28;20142;-81
2021/10/15 07:57:04;;;;;;;21.42;9.80;;;;;;;5.55;100.00;99293.44;5053151;28;20132;-82
2021/10/15 07:59:31;;;;;;;16.05;8.95;;;;;;;5.64;100.00;99295.25;5053023;28;20051;-82
2021/10/15 08:01:58;;;;;;;18.10;9.48;;;;;;;5.75;100.00;99301.44;5053492;28;20463;-82
2021/10/15 08:04:26;;;;;;;14.07;8.05;;;;;;;5.83;100.00;99294.28;5053325;28;20045;-82
2021/10/15 08:06:53;;;;;;;10.80;7.13;;;;;;;5.96;100.00;99298.47;5033888;28;20426;-82
2021/10/15 08:09:20;;;;;;;13.85;7.10;;;;;;;6.10;100.00;99302.56;5033447;28;20057;-82
2021/10/15 08:11:46;;;;;;;13.60;7.30;;;;;;;6.18;100.00;99298.06;5037019;28;20041;-82
2021/10/15 08:14:13;;;;;;;13.55;7.95;;;;;;;6.38;100.00;99296.06;5053277;28;20049;-81
2021/10/15 08:16:40;;;;;;;16.58;8.25;;;;;;;6.54;100.00;99292.66;5052100;28;20545;-81
2021/10/15 08:19:07;;;;;;;12.75;7.00;;;;;;;6.75;100.00;99306.84;5033444;28;20049;-81
2021/10/15 08:21:35;;;;;;;16.17;7.47;;;;;;;6.84;100.00;99304.03;5033258;28;20100;-82
2021/10/15 08:24:02;;;;;;;7.65;4.95;;;;;;;6.82;100.00;99295.25;5051369;28;20049;-82
2021/10/15 08:26:28;;;;;;;7.13;4.85;;;;;;;7.01;100.00;99301.44;5052913;28;20656;-81
2021/10/15 08:28:59;;;;;;;8.23;5.43;;;;;;;7.23;100.00;99308.19;5036380;28;20046;-82
2021/10/15 08:31:26;;;;;;;10.20;4.93;;;;;;;7.28;100.00;99313.13;5032946;28;20057;-82
2021/10/15 08:33:56;;;;;;;10.32;5.38;;;;;;;7.24;100.00;99304.47;5039872;28;20110;-81
2021/10/15 08:36:25;;;;;;;7.80;5.22;;;;;;;7.32;100.00;99303.69;5052072;28;20492;-81
2021/10/15 08:38:53;;;;;;;12.05;4.80;;;;;;;7.37;100.00;99302.16;5052542;28;20060;-81
2021/10/15 08:41:21;;;;;;;7.95;5.00;;;;;;;7.56;100.00;99298.38;5033032;28;20139;-82
2021/10/15 08:43:48;;;;;;;8.75;5.00;;;;;;;7.76;100.00;99296.25;5032956;28;20402;-82
2021/10/15 08:46:15;;;;;;;13.18;4.68;;;;;;;7.85;100.00;99290.88;5032529;28;20050;-81
2021/10/15 08:48:41;;;;;;;15.60;5.10;;;;;;;7.85;100.00;99282.78;5032466;28;20546;-81
2021/10/15 08:51:09;;;;;;;7.95;4.80;;;;;;;7.87;100.00;99291.56;5044353;28;20049;-81
2021/10/15 08:53:45;;;;;;;9.07;5.75;;;;;;;7.88;100.00;99282.44;5051505;28;20049;-81
2021/10/15 08:56:15;;;;;;;7.70;4.78;;;;;;;7.96;99.64;99271.63;5050780;28;20103;-82
2021/10/15 08:58:42;;;;;;;7.40;5.05;;;;;;;8.12;99.76;99279.78;5052495;28;20052;-81
2021/10/15 09:01:09;;;;;;;10.02;5.00;;;;;;;8.07;99.19;99289.41;5052269;28;20150;-82
2021/10/15 09:03:36;;;;;;;10.88;4.78;;;;;;;8.06;100.00;99295.84;5051756;28;20404;-82
2021/10/15 09:06:05;;;;;;;18.35;4.63;;;;;;;8.00;100.00;99294.66;5051939;28;20045;-82
2021/10/15 09:08:45;;;;;;;5.18;4.05;;;;;;;7.96;98.09;99290.56;5050751;28;20048;-82
2021/10/15 09:11:24;;;;;;;;;;;;;;;7.95;98.93;99297.03;5052728;28;20087;-82
2021/10/15 09:13:52;;;;;;;10.55;4.57;;;;;;;8.09;100.00;99298.22;5047429;28;19956;-81
2021/10/15 09:16:18;;;;;;;10.23;4.65;;;;;;;8.08;100.00;99300.06;5052020;28;20073;-82
2021/10/15 09:18:46;;;;;;;8.68;4.82;;;;;;;8.05;98.88;99288.75;5037073;28;20041;-82
2021/10/15 09:21:18;;;;;;;6.90;4.82;;;;;;;8.06;99.77;99282.31;5032389;28;20203;-82
2021/10/15 09:23:48;;;;;;;6.13;4.38;;;;;;;8.29;100.00;99290.63;5032026;28;20053;-82
2021/10/15 09:26:15;;;;;;;8.75;4.95;;;;;;;8.36;97.68;99285.41;5031883;28;20095;-81
2021/10/15 09:28:46;;;;;;;8.23;4.05;;;;;;;8.36;97.69;99288.97;5041843;28;20468;-82
2021/10/15 09:31:17;;;;;;;6.47;4.60;;;;;;;8.44;97.92;99289.00;5031967;28;20493;-81
2021/10/15 09:33:52;;;;;;;6.90;4.38;;;;;;;8.41;97.93;99283.88;5032219;28;20057;-81
2021/10/15 09:36:20;;;;;;;6.75;4.07;;;;;;;8.51;96.11;99294.59;5031576;28;20050;-82
2021/10/15 09:38:47;;;;;;;8.10;4.00;;;;;;;8.59;95.65;99301.88;5032252;28;20107;-82
2021/10/15 09:41:35;;;;;;;6.80;4.50;;;;;;;8.73;95.94;99301.22;5048790;28;20053;-82
2021/10/15 09:44:31;;;;;;;6.80;4.57;;;;;;;8.79;94.40;99291.53;5052127;28;20124;-82
2021/10/15 09:47:18;;;;;;;9.45;3.95;;;;;;;8.99;93.79;99295.59;5032345;28;20053;-82
2021/10/15 09:49:49;;;;;;;6.43;4.07;;;;;;;9.03;94.06;99291.53;5032341;28;20272;-82
2021/10/15 09:52:33;;;;;;;6.65;4.53;;;;;;;9.21;96.18;99272.34;5043364;28;20451;-82
2021/10/15 09:55:04;;;;;;;6.72;4.78;;;;;;;9.31;96.55;99282.97;5051868;28;20148;-82
2021/10/15 09:57:33;;;;;;;7.00;3.90;;;;;;;9.32;95.52;99276.53;5050949;28;20049;-82
2021/10/15 10:00:02;;;;;;;8.63;4.03;;;;;;;9.43;91.73;99277.19;5051348;28;20099;-82
2021/10/15 10:02:29;;;;;;;7.43;4.20;;;;;;;9.53;90.33;99289.53;5050953;28;20056;-82
2021/10/15 10:04:56;;;;;;;10.48;4.78;;;;;;;9.62;89.06;99281.34;5050387;28;20126;-82
2021/10/15 10:07:24;;;;;;;5.82;3.75;;;;;;;9.71;90.96;99288.44;5049943;28;20041;-82
2021/10/15 10:09:51;;;;;;;7.18;4.40;;;;;;;9.78;89.27;99277.72;5037329;28;20397;-82
2021/10/15 10:12:19;;;;;;;6.72;4.40;;;;;;;9.86;89.31;99277.66;5039821;28;20084;-82
2021/10/15 10:14:46;;;;;;;7.32;3.80;;;;;;;9.84;91.13;99266.16;5050954;28;20041;-82
2021/10/15 10:17:22;;;;;;;11.30;4.72;;;;;;;9.95;88.96;99262.19;5050035;28;20049;-82
2021/10/15 10:19:51;;;;;;;8.05;4.75;;;;;;;10.15;88.68;99266.16;5054680;28;20048;-82
2021/10/15 10:22:20;;;;;;;6.47;4.50;;;;;;;10.20;87.66;99268.31;5048478;28;20136;-83
2021/10/15 10:24:51;;;;;;;9.52;4.20;;;;;;;10.36;86.44;99260.09;5035207;28;20115;-83
2021/10/15 10:27:29;;;;;;;5.18;3.65;;;;;;;10.52;86.12;99260.97;5035366;28;20041;-83
2021/10/15 10:30:00;;;;;;;6.60;3.67;;;;;;;10.62;86.68;99269.75;5035679;28;20076;-82
2021/10/15 10:32:29;;;;;;;5.38;3.50;;;;;;;10.61;83.49;99255.31;5036800;28;20046;-83
2021/10/15 10:35:26;;;;;;;5.93;3.88;;;;;;;10.82;83.61;99274.66;5054451;28;20049;-83
2021/10/15 10:38:30;;;;;;;4.80;3.22;;;;;;;10.94;83.78;99268.63;5054923;28;20048;-83
